Shantou, Guangdong

1:49 AM CST on August 27, 2016 (GMT +0800)
Shantou | | Change Station

Elev 10 ft 23.55 °N, 116.51 °E | Updated 49 minutes ago

Scattered Clouds
Scattered Clouds
79 °F
Feels Like 79 °F
N
4
Wind Variable Wind from East

Today
High -- | Low -- °F
--% Chance of Precip.
Yesterday
High -- | Low -- °F
Precip. -- in
Pressure 29.71 in
Visibility 4.3 miles
Clouds Scattered Clouds 5000 ft
Dew Point 77 °F
Humidity 94%
Rainfall 0.00 in
Snow Depth Not available.
5:53 AM 6:35 PM
Waning Crescent, 32% visible
METAR ZGOW 261700Z 10002MPS 060V130 7000 SCT050 26/25 Q1006 NOSIG
Pressure 29.71 in
Visibility 4.3 miles
Clouds Scattered Clouds 5000 ft
Dew Point 77 °F
Humidity 94%
Rainfall 0.00 in
Snow Depth Not available.
5:53 AM 6:35 PM
Waning Crescent, 32% visible
METAR ZGOW 261700Z 10002MPS 060V130 7000 SCT050 26/25 Q1006 NOSIG

10-Day Weather Forecast

No radar image for this location.
×

Almanac

Astronomy

Aug. 27, 2016 Rise Set
Actual Time
Civil Twilight
Nautical Twilight
Astronomical Twilight
Moon
Length of Visible Light
Length of Day
Tomorrow will be .
, % of the Moon is Illuminated

Today's Extremes

Country Highs Country Lows

Community

WunderPhotos

Upload Photos

1,935,152 photos uploaded!

WunderBlog® & News

Nearby

Air Quality

  Air Quality AQ Index Pollutant
Not available.

Snow Depth

Station Depth Elevation

Earthquake Activity

City Distance Mag. Time & Date
Minimum magnitude displayed is 2.5.

Coastal Water Temperatures

Place Temperature

Stations

Nearby Weather Stations

Station Location Temp. Windchill Dew Point Humidity Wind Precip. Elev Updated Type